Time;durP1;ratioP1;P1;durP2;ratioP2;P2;SDS_P1;SDS_P2;PMS_P1;PMS_P2;Temp;Humidity;BMP_temperature;BMP_pressure;BME280_temperature;BME280_humidity;BME280_pressure;Samples;Min_cycle;Max_cycle;Signal;HPM_P1;HPM_P2
2023/07/24 00:01:17;;;;;;;10.90;5.82;;;16.40;99.90;;;;;;5044909;28;20037;-70
2023/07/24 00:03:42;;;;;;;9.30;5.10;;;16.30;99.90;;;;;;5058455;28;20965;-67
2023/07/24 00:06:08;;;;;;;10.75;5.00;;;16.30;99.90;;;;;;5038552;28;20037;-70
2023/07/24 00:08:33;;;;;;;12.27;5.57;;;16.30;99.90;;;;;;5066921;28;20179;-69
2023/07/24 00:10:59;;;;;;;10.75;4.82;;;16.30;99.90;;;;;;5058612;28;20795;-70
2023/07/24 00:13:25;;;;;;;9.68;5.30;;;16.20;99.90;;;;;;5031603;28;20182;-68
2023/07/24 00:15:51;;;;;;;11.27;4.90;;;16.20;99.90;;;;;;5039603;28;20032;-71
2023/07/24 00:18:16;;;;;;;10.27;4.70;;;16.20;99.90;;;;;;5057132;28;20078;-70
2023/07/24 00:20:42;;;;;;;11.25;5.30;;;16.20;99.90;;;;;;5038446;28;20131;-71
2023/07/24 00:23:07;;;;;;;11.57;5.50;;;16.20;99.90;;;;;;5056904;28;20048;-71
2023/07/24 00:25:33;;;;;;;12.05;5.63;;;16.20;99.90;;;;;;5040258;28;20044;-71
2023/07/24 00:27:59;;;;;;;9.90;4.90;;;16.20;99.90;;;;;;5059975;28;20036;-70
2023/07/24 00:30:24;;;;;;;15.73;6.00;;;16.30;99.90;;;;;;5060341;28;20040;-68
2023/07/24 00:32:50;;;;;;;9.77;5.45;;;16.30;99.90;;;;;;5040603;28;20089;-68
2023/07/24 00:35:15;;;;;;;12.48;5.38;;;16.30;99.90;;;;;;5054898;28;20070;-70
2023/07/24 00:37:41;;;;;;;12.18;5.38;;;16.30;99.90;;;;;;5043557;28;20032;-69
2023/07/24 00:40:07;;;;;;;9.05;5.40;;;16.20;99.90;;;;;;5064310;28;20037;-68
2023/07/24 00:42:33;;;;;;;9.57;5.47;;;16.20;99.90;;;;;;5059194;28;20181;-69
2023/07/24 00:44:58;;;;;;;10.40;5.82;;;16.20;99.90;;;;;;5044700;28;20053;-70
2023/07/24 00:47:25;;;;;;;11.68;5.55;;;16.20;99.90;;;;;;5044443;28;20101;-70
2023/07/24 00:49:51;;;;;;;10.30;6.18;;;16.10;99.90;;;;;;5045036;28;21100;-70
2023/07/24 00:52:17;;;;;;;9.93;6.15;;;16.10;99.90;;;;;;5024134;28;20032;-70
2023/07/24 00:54:45;;;;;;;15.43;7.32;;;16.10;99.90;;;;;;5045723;28;20708;-69
2023/07/24 00:57:10;;;;;;;12.93;7.95;;;16.10;99.90;;;;;;5050262;28;20079;-69
2023/07/24 00:59:36;;;;;;;13.15;7.82;;;16.10;99.90;;;;;;5040710;28;20033;-69
2023/07/24 01:02:02;;;;;;;14.00;8.40;;;16.10;99.90;;;;;;5053437;28;20037;-70
2023/07/24 01:04:27;;;;;;;16.65;9.82;;;16.10;99.90;;;;;;5033994;28;20511;-69
2023/07/24 01:06:53;;;;;;;13.73;8.50;;;16.20;99.90;;;;;;5020945;28;20086;-69
2023/07/24 01:09:19;;;;;;;14.77;9.30;;;16.10;99.90;;;;;;5056615;28;20599;-70
2023/07/24 01:11:59;;;;;;;14.25;8.82;;;16.10;99.90;;;;;;5038604;28;20041;-70
2023/07/24 01:14:39;;;;;;;15.90;10.07;;;16.20;99.90;;;;;;5058577;28;22019;-70
2023/07/24 01:17:10;;;;;;;16.67;10.15;;;16.20;99.90;;;;;;5062931;28;20097;-71
2023/07/24 01:19:40;;;;;;;17.80;10.48;;;16.20;99.90;;;;;;5054107;28;20051;-70
2023/07/24 01:22:29;;;;;;;15.93;11.05;;;16.20;99.90;;;;;;5041039;28;20557;-70
2023/07/24 01:25:19;;;;;;;19.27;11.00;;;16.20;99.90;;;;;;5016447;28;20048;-69
2023/07/24 01:27:45;;;;;;;;;;;16.20;99.90;;;;;;5056894;28;20075;-70
2023/07/24 01:30:12;;;;;;;16.17;10.88;;;16.20;99.90;;;;;;5043860;28;19968;-70
2023/07/24 01:32:39;;;;;;;19.23;11.10;;;16.10;99.90;;;;;;5055436;28;20048;-69
2023/07/24 01:35:05;;;;;;;16.77;10.90;;;16.10;99.90;;;;;;5057768;28;20106;-69
2023/07/24 01:37:33;;;;;;;18.80;11.63;;;16.10;99.90;;;;;;5032469;28;20060;-70
2023/07/24 01:40:00;;;;;;;20.45;11.13;;;16.10;99.90;;;;;;5062737;28;20044;-69
2023/07/24 01:42:26;;;;;;;21.25;11.82;;;16.10;99.90;;;;;;5048441;28;20072;-69
2023/07/24 01:44:53;;;;;;;17.70;10.88;;;16.00;99.90;;;;;;5061181;28;20495;-70
2023/07/24 01:47:19;;;;;;;16.58;11.00;;;16.00;99.90;;;;;;5048194;28;20036;-70
2023/07/24 01:49:44;;;;;;;17.60;10.52;;;16.00;99.90;;;;;;5042017;28;20507;-69
2023/07/24 01:52:10;;;;;;;17.05;11.23;;;16.00;99.90;;;;;;5048387;28;20429;-68
2023/07/24 01:54:35;;;;;;;15.95;10.55;;;16.00;99.90;;;;;;5044217;28;20041;-69
2023/07/24 01:57:01;;;;;;;16.35;10.10;;;16.00;99.90;;;;;;5061154;28;20452;-69
2023/07/24 01:59:26;;;;;;;17.70;10.43;;;16.00;99.90;;;;;;5027016;28;20055;-68
2023/07/24 02:01:52;;;;;;;17.50;10.48;;;16.00;99.90;;;;;;5044473;28;20060;-69
2023/07/24 02:04:18;;;;;;;18.25;10.27;;;16.00;99.90;;;;;;5045473;28;20040;-70
2023/07/24 02:06:43;;;;;;;18.95;10.95;;;16.00;99.90;;;;;;5065694;28;20036;-71
2023/07/24 02:09:10;;;;;;;15.93;10.25;;;16.00;99.90;;;;;;5046251;28;20108;-69
2023/07/24 02:11:35;;;;;;;15.32;10.50;;;16.00;99.90;;;;;;5046075;28;20044;-69
2023/07/24 02:14:01;;;;;;;17.02;10.93;;;16.00;99.90;;;;;;5060870;28;20434;-70
2023/07/24 02:16:26;;;;;;;15.52;10.23;;;15.90;99.90;;;;;;5050163;28;20056;-69
2023/07/24 02:18:52;;;;;;;17.10;9.88;;;15.90;99.90;;;;;;5026264;28;20098;-70
2023/07/24 02:21:17;;;;;;;16.70;10.55;;;15.90;99.90;;;;;;5032153;28;20135;-69
2023/07/24 02:23:43;;;;;;;16.48;10.50;;;15.90;99.90;;;;;;5035829;28;20091;-70
2023/07/24 02:26:08;;;;;;;17.77;10.35;;;15.90;99.90;;;;;;5063221;28;20051;-68
2023/07/24 02:28:34;;;;;;;15.63;10.57;;;15.80;99.90;;;;;;5066468;28;20046;-67
2023/07/24 02:31:00;;;;;;;17.75;10.93;;;15.80;99.90;;;;;;5047563;28;20187;-70
2023/07/24 02:33:26;;;;;;;15.38;10.50;;;15.80;99.90;;;;;;5049484;28;20052;-68
2023/07/24 02:35:52;;;;;;;17.50;10.55;;;15.80;99.90;;;;;;5049558;28;20051;-69
2023/07/24 02:38:18;;;;;;;18.60;10.23;;;15.80;99.90;;;;;;5066614;28;20051;-70
2023/07/24 02:40:44;;;;;;;17.42;10.50;;;15.80;99.90;;;;;;5051888;28;20041;-69
2023/07/24 02:43:10;;;;;;;17.05;11.13;;;15.80;99.90;;;;;;5069287;28;20115;-69
2023/07/24 02:45:37;;;;;;;21.40;11.10;;;15.80;99.90;;;;;;5058299;28;20163;-68
2023/07/24 02:48:03;;;;;;;19.05;11.00;;;15.80;99.90;;;;;;5065770;28;20114;-70
2023/07/24 02:50:29;;;;;;;17.98;10.57;;;15.80;99.90;;;;;;5064830;28;20037;-69
2023/07/24 02:52:55;;;;;;;17.05;10.32;;;15.80;99.90;;;;;;5036522;28;20045;-69
2023/07/24 02:55:20;;;;;;;19.60;10.40;;;15.80;99.90;;;;;;5033344;28;20040;-69
2023/07/24 02:57:46;;;;;;;17.70;10.68;;;15.70;99.90;;;;;;5065435;28;20043;-68
2023/07/24 03:00:12;;;;;;;15.43;9.75;;;15.70;99.90;;;;;;5039791;28;20037;-70
2023/07/24 03:02:38;;;;;;;17.05;10.85;;;15.70;99.90;;;;;;5040495;28;20036;-70
2023/07/24 03:05:04;;;;;;;17.05;10.05;;;15.70;99.90;;;;;;5040531;28;20040;-70
2023/07/24 03:07:29;;;;;;;17.20;10.32;;;15.70;99.90;;;;;;5062173;28;20375;-70
2023/07/24 03:09:55;;;;;;;16.80;9.50;;;15.70;99.90;;;;;;5059088;28;20049;-69
2023/07/24 03:12:21;;;;;;;15.68;9.48;;;15.60;99.90;;;;;;5041522;28;20032;-70
2023/07/24 03:14:47;;;;;;;15.40;9.88;;;15.60;99.90;;;;;;5037127;28;20036;-69
2023/07/24 03:17:13;;;;;;;16.17;9.75;;;15.70;99.90;;;;;;5027271;28;20059;-69
2023/07/24 03:19:38;;;;;;;15.55;8.88;;;15.60;99.90;;;;;;5028156;28;20040;-69
2023/07/24 03:22:04;;;;;;;15.25;9.13;;;15.60;99.90;;;;;;5045684;28;20112;-68
2023/07/24 03:24:30;;;;;;;17.15;9.23;;;15.60;99.90;;;;;;5043685;28;20349;-70
2023/07/24 03:26:55;;;;;;;15.43;8.80;;;15.60;99.90;;;;;;5064326;28;20048;-68
2023/07/24 03:29:21;;;;;;;13.82;8.32;;;15.60;99.90;;;;;;5048532;28;20047;-69
2023/07/24 03:31:46;;;;;;;13.82;8.82;;;15.60;99.90;;;;;;5043553;28;20467;-70
2023/07/24 03:34:12;;;;;;;15.88;9.20;;;15.60;99.90;;;;;;5057967;28;20476;-69
2023/07/24 03:36:41;;;;;;;15.00;9.05;;;15.60;99.90;;;;;;5067428;28;20506;-69
2023/07/24 03:39:07;;;;;;;14.95;9.18;;;15.60;99.90;;;;;;5047468;28;20083;-69
2023/07/24 03:41:32;;;;;;;15.35;8.65;;;15.60;99.90;;;;;;5046788;28;20040;-69
2023/07/24 03:43:58;;;;;;;17.10;9.30;;;15.60;99.90;;;;;;5038647;28;20064;-69
2023/07/24 03:46:24;;;;;;;13.20;8.50;;;15.60;99.90;;;;;;5043163;28;20048;-68
2023/07/24 03:48:50;;;;;;;15.98;8.70;;;15.70;99.90;;;;;;5055710;28;20128;-69
2023/07/24 03:51:16;;;;;;;15.27;9.00;;;15.70;99.90;;;;;;5056853;28;20454;-70
2023/07/24 03:53:41;;;;;;;16.40;8.90;;;15.70;99.90;;;;;;5045543;28;20053;-70
2023/07/24 03:56:07;;;;;;;13.98;8.80;;;15.70;99.90;;;;;;5056392;28;20128;-70
2023/07/24 03:58:33;;;;;;;15.48;9.20;;;15.70;99.90;;;;;;5042992;28;20110;-70
2023/07/24 04:00:58;;;;;;;16.13;9.50;;;15.70;99.90;;;;;;5042794;28;20036;-68
2023/07/24 04:03:24;;;;;;;14.25;9.40;;;15.80;99.90;;;;;;5024191;28;20079;-69
2023/07/24 04:05:49;;;;;;;15.60;9.63;;;15.80;99.90;;;;;;5057908;28;20036;-68
2023/07/24 04:08:15;;;;;;;15.55;8.90;;;15.80;99.90;;;;;;5062936;28;20143;-70
2023/07/24 04:10:40;;;;;;;18.98;9.75;;;15.80;99.90;;;;;;5063426;28;20060;-69
2023/07/24 04:13:06;;;;;;;15.02;8.38;;;15.80;99.90;;;;;;5040842;28;20041;-69
2023/07/24 04:15:32;;;;;;;14.40;8.48;;;15.80;99.90;;;;;;5057850;28;20036;-69
2023/07/24 04:17:57;;;;;;;15.68;8.63;;;15.80;99.90;;;;;;5065921;28;20032;-69
2023/07/24 04:20:23;;;;;;;13.07;8.02;;;15.80;99.90;;;;;;5036332;28;20458;-70
2023/07/24 04:22:48;;;;;;;15.40;8.52;;;15.90;99.90;;;;;;5060672;28;20032;-68
2023/07/24 04:25:15;;;;;;;16.50;9.00;;;15.80;99.90;;;;;;5057783;28;20059;-69
2023/07/24 04:27:41;;;;;;;14.85;8.50;;;15.80;99.90;;;;;;5040290;28;20058;-69
2023/07/24 04:30:07;;;;;;;16.50;9.23;;;15.90;99.90;;;;;;5046601;28;20040;-70
2023/07/24 04:32:32;;;;;;;12.75;8.00;;;15.90;99.90;;;;;;5040273;28;20036;-69
2023/07/24 04:34:58;;;;;;;13.88;8.38;;;15.90;99.90;;;;;;5066075;28;20041;-71
2023/07/24 04:37:24;;;;;;;13.95;8.73;;;16.00;99.90;;;;;;5047045;28;20058;-71
2023/07/24 04:39:49;;;;;;;16.27;8.95;;;16.00;99.90;;;;;;5042814;28;20106;-70
2023/07/24 04:42:15;;;;;;;16.13;8.68;;;16.00;99.90;;;;;;5055673;28;20123;-68
2023/07/24 04:44:41;;;;;;;13.38;7.90;;;16.00;99.90;;;;;;5041967;28;20162;-69
2023/07/24 04:47:06;;;;;;;13.13;8.95;;;16.00;99.90;;;;;;5044550;28;20443;-69
2023/07/24 04:49:32;;;;;;;14.43;9.15;;;16.10;99.90;;;;;;5062795;28;20048;-70
2023/07/24 04:51:58;;;;;;;15.95;9.55;;;16.10;99.90;;;;;;5046962;28;20487;-69
2023/07/24 04:54:24;;;;;;;18.08;9.20;;;16.10;99.90;;;;;;5055459;28;20053;-70
2023/07/24 04:56:50;;;;;;;16.00;8.75;;;16.10;99.90;;;;;;5044659;28;20143;-69
2023/07/24 04:59:16;;;;;;;13.80;9.65;;;16.10;99.90;;;;;;5025560;28;20059;-69
2023/07/24 05:01:41;;;;;;;14.27;8.80;;;16.10;99.90;;;;;;5054148;28;20040;-71
2023/07/24 05:04:07;;;;;;;13.88;8.48;;;16.10;99.90;;;;;;5048319;28;20048;-69
2023/07/24 05:06:32;;;;;;;12.48;7.70;;;16.10;99.90;;;;;;5036228;28;20135;-70
2023/07/24 05:08:58;;;;;;;14.73;8.98;;;16.10;99.90;;;;;;5061334;28;20459;-69
2023/07/24 05:11:24;;;;;;;14.40;8.55;;;16.10;99.90;;;;;;5037705;28;20137;-70
2023/07/24 05:13:49;;;;;;;14.82;8.95;;;16.10;99.90;;;;;;5038275;28;20063;-70
2023/07/24 05:16:15;;;;;;;12.82;8.40;;;16.10;99.90;;;;;;5043064;28;20025;-70
2023/07/24 05:18:40;;;;;;;15.52;8.93;;;16.10;99.90;;;;;;5033601;28;20060;-69
2023/07/24 05:21:06;;;;;;;14.25;8.80;;;16.10;99.90;;;;;;5033225;28;20630;-70
2023/07/24 05:23:31;;;;;;;14.88;8.80;;;16.20;99.90;;;;;;5053901;28;20112;-69
2023/07/24 05:25:58;;;;;;;14.52;8.85;;;16.20;99.90;;;;;;5038761;28;20044;-69
2023/07/24 05:28:26;;;;;;;12.95;8.10;;;16.20;99.90;;;;;;5042602;28;20502;-69
2023/07/24 05:30:51;;;;;;;16.08;8.85;;;16.20;99.90;;;;;;5058013;28;20047;-70
2023/07/24 05:33:17;;;;;;;15.88;9.50;;;16.20;99.90;;;;;;5039330;28;20040;-69
2023/07/24 05:35:43;;;;;;;14.60;8.93;;;16.30;99.90;;;;;;5055429;28;20473;-69
2023/07/24 05:38:08;;;;;;;17.58;9.93;;;16.30;99.90;;;;;;5033299;28;20066;-70
2023/07/24 05:40:34;;;;;;;15.13;9.45;;;16.40;99.90;;;;;;5052944;28;20655;-69
2023/07/24 05:43:00;;;;;;;14.38;8.90;;;16.40;99.90;;;;;;5032502;28;20041;-69
2023/07/24 05:45:27;;;;;;;15.18;9.00;;;16.50;99.90;;;;;;5046053;28;20044;-71
2023/07/24 05:47:53;;;;;;;12.50;8.65;;;16.60;99.90;;;;;;5037836;28;20041;-70
2023/07/24 05:50:19;;;;;;;13.40;9.07;;;16.70;99.90;;;;;;5035958;28;20111;-68
2023/07/24 05:52:44;;;;;;;13.55;8.60;;;16.80;99.90;;;;;;5036033;28;20067;-70
2023/07/24 05:55:10;;;;;;;14.02;9.18;;;16.80;99.90;;;;;;5034153;28;20029;-69
2023/07/24 05:57:36;;;;;;;14.77;8.70;;;16.90;99.90;;;;;;5042804;28;20120;-70
2023/07/24 06:00:03;;;;;;;15.75;8.90;;;16.90;99.90;;;;;;5041231;28;20621;-71
2023/07/24 06:02:29;;;;;;;14.10;8.77;;;16.90;99.90;;;;;;5035479;28;20055;-69
2023/07/24 06:04:55;;;;;;;13.20;8.65;;;17.00;99.90;;;;;;5042402;28;20475;-71
2023/07/24 06:07:20;;;;;;;12.93;9.10;;;17.00;99.90;;;;;;5034589;28;20054;-70
2023/07/24 06:09:46;;;;;;;13.73;9.05;;;17.00;99.90;;;;;;5058925;28;20032;-70
2023/07/24 06:12:11;;;;;;;13.75;9.05;;;17.00;99.90;;;;;;5052368;28;20102;-72
2023/07/24 06:14:37;;;;;;;12.40;8.20;;;17.00;99.90;;;;;;5035497;28;20469;-71
2023/07/24 06:17:02;;;;;;;13.77;8.43;;;17.00;99.90;;;;;;5061265;28;20112;-70
2023/07/24 06:19:28;;;;;;;12.85;9.05;;;17.00;99.90;;;;;;5040926;28;20392;-69
2023/07/24 06:21:53;;;;;;;14.45;8.80;;;17.00;99.90;;;;;;5063402;28;20098;-70
2023/07/24 06:24:20;;;;;;;12.20;8.13;;;17.00;99.90;;;;;;5065217;28;20186;-70
2023/07/24 06:26:46;;;;;;;12.88;8.75;;;17.10;99.90;;;;;;5047270;28;20151;-69
2023/07/24 06:29:11;;;;;;;12.77;8.15;;;17.10;99.90;;;;;;5062163;28;20072;-68
2023/07/24 06:31:37;;;;;;;14.10;8.60;;;17.20;99.90;;;;;;5056342;28;20060;-69
2023/07/24 06:34:03;;;;;;;14.65;8.63;;;17.40;99.90;;;;;;5045362;28;20136;-70
2023/07/24 06:36:28;;;;;;;12.57;7.90;;;17.50;99.90;;;;;;5042656;28;20048;-69
2023/07/24 06:38:54;;;;;;;13.00;7.75;;;17.70;99.90;;;;;;5045813;28;20060;-70
2023/07/24 06:41:22;;;;;;;12.23;7.80;;;17.80;99.90;;;;;;5065355;28;20052;-68
2023/07/24 06:43:49;;;;;;;11.45;7.88;;;17.90;99.90;;;;;;5049220;28;20072;-68
2023/07/24 06:46:14;;;;;;;18.13;8.35;;;18.00;99.90;;;;;;5059666;28;20124;-70
2023/07/24 06:48:40;;;;;;;13.18;8.32;;;18.00;99.90;;;;;;5040773;28;20127;-68
2023/07/24 06:51:05;;;;;;;12.63;8.10;;;18.00;99.90;;;;;;5061348;28;20036;-69
2023/07/24 06:53:31;;;;;;;12.52;7.47;;;18.10;99.90;;;;;;5048158;28;20529;-69
2023/07/24 06:55:56;;;;;;;11.48;7.65;;;18.10;99.90;;;;;;5042469;28;20082;-70
2023/07/24 06:58:22;;;;;;;12.15;7.93;;;18.00;99.90;;;;;;5058975;28;20064;-70
2023/07/24 07:00:48;;;;;;;10.57;6.90;;;18.10;99.90;;;;;;5039978;28;20441;-70
2023/07/24 07:03:13;;;;;;;11.32;6.85;;;18.10;99.90;;;;;;5045646;28;20041;-68
2023/07/24 07:05:39;;;;;;;12.07;7.50;;;18.20;99.90;;;;;;5040725;28;20037;-70
2023/07/24 07:08:04;;;;;;;11.50;7.53;;;18.30;99.90;;;;;;5036057;28;20067;-69
2023/07/24 07:10:33;;;;;;;12.30;7.47;;;18.30;99.90;;;;;;5033707;28;20564;-70
2023/07/24 07:12:58;;;;;;;14.25;7.60;;;18.40;99.90;;;;;;5032105;28;20047;-71
2023/07/24 07:15:24;;;;;;;13.15;7.45;;;18.40;99.90;;;;;;5045571;28;20041;-68
2023/07/24 07:17:50;;;;;;;12.10;7.30;;;18.40;99.90;;;;;;5065006;28;20041;-70
2023/07/24 07:20:16;;;;;;;11.93;6.80;;;18.40;99.90;;;;;;5033203;28;20085;-69
2023/07/24 07:22:41;;;;;;;13.93;7.38;;;18.50;99.90;;;;;;5039310;28;20045;-70
2023/07/24 07:25:07;;;;;;;10.93;6.75;;;18.70;99.90;;;;;;5042423;28;20684;-70
2023/07/24 07:27:33;;;;;;;12.10;7.82;;;18.90;99.90;;;;;;5061011;28;20175;-70
2023/07/24 07:29:58;;;;;;;12.68;7.88;;;19.10;99.90;;;;;;5038435;28;20037;-71
2023/07/24 07:32:24;;;;;;;10.43;6.82;;;19.20;99.90;;;;;;5039095;28;20056;-68
2023/07/24 07:34:50;;;;;;;10.57;7.10;;;19.30;99.90;;;;;;5067422;28;20044;-71
2023/07/24 07:37:16;;;;;;;12.63;8.10;;;19.40;99.90;;;;;;5054874;28;20033;-70
2023/07/24 07:39:41;;;;;;;12.20;7.35;;;19.50;99.90;;;;;;5050175;28;20197;-70
2023/07/24 07:42:07;;;;;;;11.88;7.97;;;19.60;99.90;;;;;;5052860;28;20076;-72
2023/07/24 07:44:32;;;;;;;13.38;7.07;;;19.80;99.90;;;;;;5033888;28;20057;-71
2023/07/24 07:46:58;;;;;;;12.55;6.80;;;20.10;99.90;;;;;;5064185;28;20101;-71
2023/07/24 07:49:23;;;;;;;10.27;6.90;;;20.20;99.90;;;;;;5065967;28;20134;-68
2023/07/24 07:51:49;;;;;;;12.48;6.38;;;20.20;99.90;;;;;;5049308;28;20094;-71
2023/07/24 07:54:15;;;;;;;11.20;6.88;;;20.10;99.90;;;;;;5062411;28;20033;-70
2023/07/24 07:56:41;;;;;;;12.60;7.38;;;19.90;99.90;;;;;;5063638;28;20048;-70
2023/07/24 07:59:07;;;;;;;11.73;6.97;;;19.70;99.90;;;;;;5047473;28;20040;-70
2023/07/24 08:01:32;;;;;;;12.18;6.53;;;19.60;99.90;;;;;;5067681;28;20040;-68
2023/07/24 08:03:58;;;;;;;10.23;6.65;;;19.60;99.90;;;;;;5068703;28;20052;-70
2023/07/24 08:06:24;;;;;;;12.25;6.15;;;19.70;99.90;;;;;;5046625;28;20137;-70
2023/07/24 08:08:50;;;;;;;12.25;6.93;;;19.80;99.90;;;;;;5036282;28;20075;-71
2023/07/24 08:11:15;;;;;;;11.00;6.43;;;19.80;99.90;;;;;;5069532;28;20033;-72
2023/07/24 08:13:41;;;;;;;11.05;6.60;;;19.90;99.90;;;;;;5066782;28;20407;-69
2023/07/24 08:16:18;;;;;;;16.13;6.50;;;20.10;99.90;;;;;;5031960;28;20325;-70
2023/07/24 08:18:47;;;;;;;8.75;6.20;;;20.40;99.00;;;;;;5065627;28;20728;-69
2023/07/24 08:21:14;;;;;;;10.88;6.55;;;20.40;98.70;;;;;;5064146;28;20036;-70
2023/07/24 08:23:40;;;;;;;10.85;6.10;;;20.50;98.60;;;;;;5062936;28;20028;-72
2023/07/24 08:26:07;;;;;;;11.10;6.45;;;20.60;98.00;;;;;;5036987;28;20104;-71
2023/07/24 08:28:34;;;;;;;10.48;5.68;;;20.70;97.60;;;;;;5060157;28;21585;-72
2023/07/24 08:31:01;;;;;;;9.88;5.65;;;20.70;95.70;;;;;;5028069;28;20090;-72
2023/07/24 08:33:27;;;;;;;8.48;5.20;;;20.70;96.40;;;;;;5050785;28;20117;-70
2023/07/24 08:36:01;;;;;;;9.43;5.75;;;21.00;96.20;;;;;;5058007;28;20135;-70
2023/07/24 08:38:26;;;;;;;10.40;5.93;;;21.30;91.90;;;;;;5062747;28;20036;-70
2023/07/24 08:41:12;;;;;;;11.73;6.13;;;21.60;95.10;;;;;;5043412;28;20044;-72
2023/07/24 08:43:40;;;;;;;8.82;5.20;;;21.40;86.90;;;;;;5066778;28;20060;-70
2023/07/24 08:46:06;;;;;;;9.65;5.40;;;21.60;92.80;;;;;;5041831;28;20189;-70
2023/07/24 08:48:37;;;;;;;11.38;5.93;;;21.60;92.60;;;;;;5046034;28;20123;-71
2023/07/24 08:51:04;;;;;;;9.07;5.72;;;21.40;92.20;;;;;;5028645;28;20085;-69
2023/07/24 08:53:32;;;;;;;8.23;5.05;;;21.20;92.60;;;;;;5034687;28;20113;-72
2023/07/24 08:55:59;;;;;;;8.88;5.28;;;21.10;92.50;;;;;;5036501;28;20752;-72
2023/07/24 08:58:25;;;;;;;8.85;5.25;;;21.10;91.50;;;;;;5068856;28;20044;-69
2023/07/24 09:00:51;;;;;;;9.90;5.18;;;21.10;92.00;;;;;;5064284;28;20044;-70
2023/07/24 09:03:18;;;;;;;8.55;4.63;;;21.80;91.20;;;;;;5047780;28;20063;-68
2023/07/24 09:05:45;;;;;;;9.05;5.45;;;22.60;90.50;;;;;;5067402;28;20044;-74
2023/07/24 09:08:10;;;;;;;10.90;5.47;;;23.50;83.60;;;;;;5022485;28;20036;-73
2023/07/24 09:10:36;;;;;;;8.10;5.60;;;23.40;86.20;;;;;;5057528;28;20246;-71
2023/07/24 09:13:03;;;;;;;8.98;5.55;;;23.10;85.00;;;;;;5065012;28;20940;-71
2023/07/24 09:15:38;;;;;;;11.05;5.10;;;22.60;84.70;;;;;;5062939;28;20160;-71
2023/07/24 09:18:04;;;;;;;9.88;5.50;;;22.20;85.40;;;;;;5049882;28;20048;-67
2023/07/24 09:20:40;;;;;;;9.10;4.97;;;22.50;84.90;;;;;;5031179;28;20037;-72
2023/07/24 09:23:07;;;;;;;9.95;5.05;;;23.00;80.20;;;;;;5067407;28;20047;-72
2023/07/24 09:25:34;;;;;;;9.43;6.10;;;22.80;82.80;;;;;;5032431;28;20033;-70
2023/07/24 09:28:00;;;;;;;8.52;4.78;;;22.70;82.20;;;;;;5067475;28;20028;-70
2023/07/24 09:30:26;;;;;;;8.85;5.43;;;23.50;80.30;;;;;;5048860;28;20102;-72
2023/07/24 09:32:55;;;;;;;9.90;5.40;;;24.60;77.40;;;;;;5064607;28;20082;-70
2023/07/24 09:35:27;;;;;;;9.55;4.78;;;25.00;76.00;;;;;;5030736;28;20120;-70
2023/07/24 09:38:02;;;;;;;8.38;5.07;;;24.80;74.50;;;;;;5048577;28;20093;-70
2023/07/24 09:40:27;;;;;;;9.55;5.28;;;24.10;72.10;;;;;;5046568;28;20360;-71
2023/07/24 09:42:53;;;;;;;6.43;4.22;;;23.90;75.50;;;;;;5066302;28;20044;-70
2023/07/24 09:45:18;;;;;;;7.28;3.80;;;23.90;75.90;;;;;;5035216;28;20053;-70
2023/07/24 09:47:45;;;;;;;7.40;4.68;;;23.70;76.30;;;;;;5049309;28;20044;-70
2023/07/24 09:50:11;;;;;;;5.05;4.20;;;23.40;76.00;;;;;;5042770;28;20127;-69
2023/07/24 09:52:41;;;;;;;6.47;3.95;;;23.20;76.10;;;;;;5060094;28;20123;-69
2023/07/24 09:55:10;;;;;;;;;;;22.60;75.30;;;;;;5050343;28;20459;-71
2023/07/24 09:57:36;;;;;;;8.15;4.15;;;22.30;72.50;;;;;;5049110;28;19978;-70
2023/07/24 10:00:02;;;;;;;7.60;4.07;;;22.60;77.80;;;;;;5047747;28;20046;-71
2023/07/24 10:02:28;;;;;;;10.35;5.07;;;23.00;76.40;;;;;;5047653;28;20506;-71
2023/07/24 10:04:56;;;;;;;7.72;4.82;;;23.30;74.70;;;;;;5046451;28;20248;-68
2023/07/24 10:07:23;;;;;;;13.18;5.03;;;23.40;73.70;;;;;;5033897;28;20146;-72
2023/07/24 10:09:50;;;;;;;6.90;4.72;;;22.90;74.10;;;;;;5063693;28;20117;-71
2023/07/24 10:12:20;;;;;;;9.95;4.32;;;23.10;73.70;;;;;;5037291;28;20102;-71
2023/07/24 10:14:47;;;;;;;6.00;4.20;;;24.00;72.20;;;;;;5025205;28;20041;-71
2023/07/24 10:17:12;;;;;;;5.18;3.45;;;25.40;70.10;;;;;;5044980;28;20639;-68
2023/07/24 10:19:45;;;;;;;6.25;3.65;;;26.40;66.50;;;;;;5046493;28;20106;-71
2023/07/24 10:22:20;;;;;;;8.40;4.22;;;27.20;62.60;;;;;;5053370;28;20032;-71
2023/07/24 10:24:47;;;;;;;4.68;3.30;;;27.70;54.00;;;;;;5038955;28;20037;-71
2023/07/24 10:27:12;;;;;;;5.60;3.30;;;27.70;59.30;;;;;;5060469;28;20111;-69
2023/07/24 10:29:38;;;;;;;4.43;2.95;;;27.30;59.00;;;;;;5064189;28;20119;-70
2023/07/24 10:32:16;;;;;;;6.57;3.50;;;26.80;59.00;;;;;;5062466;28;20028;-71
2023/07/24 10:34:42;;;;;;;6.75;3.60;;;26.40;59.40;;;;;;5047443;28;20040;-71
2023/07/24 10:37:11;;;;;;;6.35;3.72;;;26.00;60.10;;;;;;5045562;28;20090;-70
2023/07/24 10:39:40;;;;;;;5.57;3.47;;;26.50;57.50;;;;;;5028274;28;20049;-71
2023/07/24 10:42:10;;;;;;;7.55;3.67;;;27.20;54.30;;;;;;5039426;28;20032;-69
2023/07/24 10:44:36;;;;;;;10.95;4.18;;;28.00;54.20;;;;;;5015849;28;20053;-68
2023/07/24 10:47:03;;;;;;;6.07;3.40;;;28.50;54.30;;;;;;5048595;28;20081;-69
2023/07/24 10:49:28;;;;;;;6.43;3.22;;;28.10;54.60;;;;;;5049747;28;20036;-71
2023/07/24 10:51:58;;;;;;;6.20;3.20;;;27.70;55.20;;;;;;5061489;28;20704;-71
2023/07/24 10:54:24;;;;;;;8.20;3.78;;;26.90;55.10;;;;;;5051980;28;20060;-72
2023/07/24 10:56:49;;;;;;;6.38;3.67;;;26.60;58.10;;;;;;5049128;28;20029;-69
2023/07/24 10:59:15;;;;;;;5.07;3.30;;;26.30;58.60;;;;;;5050468;28;20040;-70
2023/07/24 11:01:41;;;;;;;6.03;3.72;;;26.00;58.30;;;;;;5073428;28;20040;-70
2023/07/24 11:04:08;;;;;;;5.47;3.78;;;25.80;59.10;;;;;;5046090;28;20048;-72
2023/07/24 11:06:34;;;;;;;7.35;3.90;;;25.50;58.20;;;;;;5063253;28;20037;-70
2023/07/24 11:09:00;;;;;;;5.57;3.72;;;25.40;59.00;;;;;;5048051;28;20043;-71
2023/07/24 11:11:33;;;;;;;6.82;3.55;;;25.00;59.00;;;;;;5045597;28;20041;-70
2023/07/24 11:14:00;;;;;;;6.47;3.47;;;24.90;59.10;;;;;;5037983;28;20037;-70
2023/07/24 11:16:25;;;;;;;5.45;3.88;;;24.70;60.00;;;;;;5041561;28;20158;-71
2023/07/24 11:18:55;;;;;;;6.20;3.90;;;24.70;60.10;;;;;;5050928;28;20124;-70
2023/07/24 11:21:24;;;;;;;9.13;3.88;;;24.70;60.50;;;;;;5043099;28;20040;-71
2023/07/24 11:23:52;;;;;;;7.00;3.88;;;24.70;60.30;;;;;;5070824;28;20048;-70
2023/07/24 11:26:25;;;;;;;6.40;3.97;;;24.80;60.40;;;;;;5069349;28;20037;-73
2023/07/24 11:28:52;;;;;;;6.03;3.70;;;24.70;57.50;;;;;;5050550;28;20055;-70
2023/07/24 11:31:21;;;;;;;7.75;3.65;;;24.60;59.90;;;;;;5069208;28;20067;-70
2023/07/24 11:33:51;;;;;;;5.88;3.35;;;24.40;60.20;;;;;;5066839;28;20029;-68
2023/07/24 11:36:17;;;;;;;5.40;3.58;;;24.00;60.80;;;;;;5040954;28;20041;-71
2023/07/24 11:38:47;;;;;;;6.72;4.22;;;23.80;61.80;;;;;;5064723;28;20044;-69
2023/07/24 11:41:15;;;;;;;5.28;3.47;;;23.50;62.10;;;;;;5050085;28;20086;-73
2023/07/24 11:43:48;;;;;;;9.60;4.45;;;23.30;62.60;;;;;;5063658;28;20052;-69
2023/07/24 11:46:24;;;;;;;6.47;4.50;;;22.90;63.30;;;;;;5053014;28;20052;-72
2023/07/24 11:48:53;;;;;;;7.65;4.20;;;22.00;66.10;;;;;;5031825;28;20333;-69
2023/07/24 11:51:19;;;;;;;7.18;4.80;;;21.60;68.30;;;;;;5021224;28;20083;-68
2023/07/24 11:53:45;;;;;;;9.63;4.15;;;21.40;70.10;;;;;;5049795;28;20048;-70
2023/07/24 11:56:15;;;;;;;6.57;4.55;;;21.40;71.10;;;;;;5067227;28;20040;-69
2023/07/24 11:58:41;;;;;;;5.63;3.92;;;21.50;71.70;;;;;;5048033;28;20044;-69
2023/07/24 12:01:06;;;;;;;8.80;5.18;;;21.70;71.80;;;;;;5063024;28;20477;-68
2023/07/24 12:03:32;;;;;;;9.25;5.40;;;21.90;70.90;;;;;;5041591;28;20068;-70
2023/07/24 12:05:58;;;;;;;6.50;4.10;;;22.40;70.00;;;;;;5023738;28;20048;-71
2023/07/24 12:08:32;;;;;;;9.35;4.72;;;22.80;68.90;;;;;;5065130;28;20044;-69
2023/07/24 12:10:57;;;;;;;6.40;4.38;;;23.10;66.80;;;;;;5028446;28;20037;-73
2023/07/24 12:13:23;;;;;;;8.65;5.03;;;23.30;66.30;;;;;;5056366;28;20060;-70
2023/07/24 12:15:49;;;;;;;10.77;4.78;;;23.50;64.80;;;;;;5052416;28;20452;-73
2023/07/24 12:18:15;;;;;;;8.38;4.80;;;23.60;65.10;;;;;;5044159;28;20859;-70
2023/07/24 12:20:40;;;;;;;9.18;5.45;;;23.90;64.50;;;;;;5058953;28;20040;-70
2023/07/24 12:23:06;;;;;;;8.25;5.13;;;24.20;64.00;;;;;;5052365;28;20598;-69
2023/07/24 12:25:32;;;;;;;9.38;4.82;;;24.40;63.40;;;;;;5059295;28;20060;-72
2023/07/24 12:27:57;;;;;;;11.48;4.60;;;24.40;63.00;;;;;;5031204;28;20032;-68
2023/07/24 12:30:23;;;;;;;11.13;5.10;;;24.50;62.40;;;;;;5035760;28;20063;-70
2023/07/24 12:32:48;;;;;;;8.43;4.80;;;24.60;61.90;;;;;;5037959;28;20047;-69
2023/07/24 12:35:15;;;;;;;9.70;5.18;;;24.80;61.40;;;;;;5043730;28;20109;-71